Time;durP1;ratioP1;P1;durP2;ratioP2;P2;SDS_P1;SDS_P2;PMS_P1;PMS_P2;Temp;Humidity;BMP_temperature;BMP_pressure;BME280_temperature;BME280_humidity;BME280_pressure;Samples;Min_cycle;Max_cycle;Signal;HPM_P1;HPM_P2
2021/10/15 00:02:06;;;;;;;3.05;1.45;;;;;;;;;;5132526;28;20027;-53
2021/10/15 00:04:32;;;;;;;2.47;1.40;;;;;;;;;;5121880;28;20089;-52
2021/10/15 00:06:58;;;;;;;2.97;1.63;;;;;;;;;;5111082;28;20028;-52
2021/10/15 00:09:24;;;;;;;3.67;1.50;;;;;;;;;;5112564;28;20455;-53
2021/10/15 00:11:50;;;;;;;3.65;1.85;;;;;;;;;;5111779;28;20069;-54
2021/10/15 00:14:16;;;;;;;3.20;1.67;;;;;;;;;;5119952;28;20047;-52
2021/10/15 00:16:42;;;;;;;1.58;1.20;;;;;;;;;;5132594;28;20077;-54
2021/10/15 00:19:08;;;;;;;2.22;1.27;;;;;;;;;;5130871;28;20792;-51
2021/10/15 00:21:34;;;;;;;2.92;1.50;;;;;;;;;;5132616;28;20023;-52
2021/10/15 00:24:00;;;;;;;4.22;1.70;;;;;;;;;;5125722;28;20030;-51
2021/10/15 00:26:26;;;;;;;2.92;1.65;;;;;;;;;;5112002;28;20085;-53
2021/10/15 00:28:52;;;;;;;2.20;1.55;;;;;;;;;;5111459;28;20095;-54
2021/10/15 00:31:18;;;;;;;1.55;1.40;;;;;;;;;;5112003;28;20096;-52
2021/10/15 00:33:44;;;;;;;3.92;1.55;;;;;;;;;;5093963;28;20099;-50
2021/10/15 00:36:10;;;;;;;1.95;1.48;;;;;;;;;;5131180;28;20073;-53
2021/10/15 00:38:36;;;;;;;1.73;1.33;;;;;;;;;;5132201;28;20028;-53
2021/10/15 00:41:02;;;;;;;2.13;1.70;;;;;;;;;;5111576;28;20034;-51
2021/10/15 00:43:28;;;;;;;3.20;1.38;;;;;;;;;;5128882;28;20100;-51
2021/10/15 00:45:54;;;;;;;2.33;1.52;;;;;;;;;;5111070;28;20031;-53
2021/10/15 00:48:20;;;;;;;5.13;1.42;;;;;;;;;;5093438;28;20068;-50
2021/10/15 00:50:46;;;;;;;2.45;1.67;;;;;;;;;;5111755;28;20047;-52
2021/10/15 00:53:13;;;;;;;6.13;1.50;;;;;;;;;;5111423;28;20028;-53
2021/10/15 00:55:39;;;;;;;3.13;1.50;;;;;;;;;;5132384;28;20033;-50
2021/10/15 00:58:05;;;;;;;3.75;1.70;;;;;;;;;;5131324;28;20058;-51
2021/10/15 01:00:31;;;;;;;3.88;1.73;;;;;;;;;;5134632;27;20015;-50
2021/10/15 01:02:58;;;;;;;2.55;1.60;;;;;;;;;;5135182;27;20368;-52
2021/10/15 01:05:24;;;;;;;3.97;1.65;;;;;;;;;;5134142;27;20019;-49
2021/10/15 01:07:53;;;;;;;2.38;1.50;;;;;;;;;;5135650;27;20068;-54
2021/10/15 01:10:19;;;;;;;2.50;1.27;;;;;;;;;;5117154;27;20099;-49
2021/10/15 01:12:46;;;;;;;3.13;1.58;;;;;;;;;;5135712;27;20060;-53
2021/10/15 01:15:12;;;;;;;3.80;1.63;;;;;;;;;;5117619;27;20024;-49
2021/10/15 01:17:38;;;;;;;2.40;1.50;;;;;;;;;;5114805;28;20041;-53
2021/10/15 01:20:04;;;;;;;2.50;1.77;;;;;;;;;;5122094;27;20045;-52
2021/10/15 01:22:31;;;;;;;2.58;1.50;;;;;;;;;;5135330;27;20050;-50
2021/10/15 01:24:58;;;;;;;1.73;1.25;;;;;;;;;;5119805;27;20484;-50
2021/10/15 01:27:24;;;;;;;2.03;1.45;;;;;;;;;;5114996;28;20071;-52
2021/10/15 01:29:51;;;;;;;2.45;1.73;;;;;;;;;;5128181;27;20037;-54
2021/10/15 01:32:18;;;;;;;2.55;1.40;;;;;;;;;;5134913;27;20110;-51
2021/10/15 01:34:45;;;;;;;2.15;1.70;;;;;;;;;;5122371;27;20462;-50
2021/10/15 01:37:11;;;;;;;2.33;1.67;;;;;;;;;;5113825;28;20035;-53
2021/10/15 01:39:37;;;;;;;2.08;1.40;;;;;;;;;;5115004;28;20467;-53
2021/10/15 01:42:03;;;;;;;2.28;1.45;;;;;;;;;;5114110;27;20091;-52
2021/10/15 01:44:29;;;;;;;2.05;1.40;;;;;;;;;;5124266;27;20022;-51
2021/10/15 01:46:55;;;;;;;2.85;1.50;;;;;;;;;;5133350;27;20456;-54
2021/10/15 01:49:21;;;;;;;2.33;1.38;;;;;;;;;;5134661;27;20055;-50
2021/10/15 01:51:47;;;;;;;2.42;1.30;;;;;;;;;;5135005;27;20043;-50
2021/10/15 01:54:13;;;;;;;3.72;1.95;;;;;;;;;;5122262;27;20593;-49
2021/10/15 01:56:39;;;;;;;2.08;1.63;;;;;;;;;;5114397;28;20058;-49
2021/10/15 01:59:06;;;;;;;1.55;1.27;;;;;;;;;;5113557;28;20051;-50
2021/10/15 02:01:32;;;;;;;2.42;1.75;;;;;;;;;;5113991;28;20039;-52
2021/10/15 02:03:58;;;;;;;2.00;1.35;;;;;;;;;;5113317;28;20015;-49
2021/10/15 02:06:25;;;;;;;2.15;1.58;;;;;;;;;;5113308;28;20419;-49
2021/10/15 02:08:51;;;;;;;2.58;1.60;;;;;;;;;;5113645;28;20026;-49
2021/10/15 02:11:17;;;;;;;2.95;1.38;;;;;;;;;;5113168;28;20460;-50
2021/10/15 02:13:43;;;;;;;2.88;1.65;;;;;;;;;;5120112;27;20019;-50
2021/10/15 02:16:09;;;;;;;3.15;1.42;;;;;;;;;;5133741;27;20027;-50
2021/10/15 02:18:35;;;;;;;2.70;1.40;;;;;;;;;;5125353;27;20019;-52
2021/10/15 02:21:01;;;;;;;1.75;1.30;;;;;;;;;;5112922;28;20073;-49
2021/10/15 02:23:27;;;;;;;3.05;1.65;;;;;;;;;;5114291;27;20019;-49
2021/10/15 02:25:54;;;;;;;1.80;1.33;;;;;;;;;;5113378;27;20107;-55
2021/10/15 02:28:20;;;;;;;2.47;1.40;;;;;;;;;;5113391;28;20016;-49
2021/10/15 02:30:46;;;;;;;1.50;1.38;;;;;;;;;;5113726;28;20027;-48
2021/10/15 02:33:12;;;;;;;2.78;1.35;;;;;;;;;;5095669;27;20380;-49
2021/10/15 02:35:39;;;;;;;2.80;1.40;;;;;;;;;;5133765;27;20066;-50
2021/10/15 02:38:05;;;;;;;2.92;1.75;;;;;;;;;;5132163;27;20094;-50
2021/10/15 02:40:31;;;;;;;3.03;1.67;;;;;;;;;;5113528;28;20053;-50
2021/10/15 02:42:58;;;;;;;2.15;1.65;;;;;;;;;;5113775;27;20019;-54
2021/10/15 02:45:24;;;;;;;1.77;1.35;;;;;;;;;;5113238;28;20332;-50
2021/10/15 02:47:50;;;;;;;2.22;1.30;;;;;;;;;;5113434;28;20430;-50
2021/10/15 02:50:16;;;;;;;2.67;1.45;;;;;;;;;;5112292;28;20039;-50
2021/10/15 02:52:42;;;;;;;1.67;1.15;;;;;;;;;;5116157;27;20421;-49
2021/10/15 02:55:08;;;;;;;2.60;1.50;;;;;;;;;;5120566;27;20015;-50
2021/10/15 02:57:34;;;;;;;1.77;1.42;;;;;;;;;;5120258;27;20015;-51
2021/10/15 03:00:01;;;;;;;2.03;1.35;;;;;;;;;;5121145;27;20031;-50
2021/10/15 03:02:27;;;;;;;2.17;1.60;;;;;;;;;;5122732;27;20027;-52
2021/10/15 03:04:53;;;;;;;2.13;1.30;;;;;;;;;;5120885;27;20078;-50
2021/10/15 03:07:19;;;;;;;2.28;1.48;;;;;;;;;;5120396;27;20046;-53
2021/10/15 03:09:48;;;;;;;3.40;1.40;;;;;;;;;;5121281;27;20014;-51
2021/10/15 03:12:14;;;;;;;3.00;1.52;;;;;;;;;;5122176;27;20698;-49
2021/10/15 03:14:40;;;;;;;2.30;1.48;;;;;;;;;;5101600;27;20018;-52
2021/10/15 03:17:06;;;;;;;2.08;1.67;;;;;;;;;;5120285;27;20090;-51
2021/10/15 03:19:33;;;;;;;1.83;1.33;;;;;;;;;;5120646;27;20112;-48
2021/10/15 03:21:59;;;;;;;2.92;1.60;;;;;;;;;;5120953;27;20027;-51
2021/10/15 03:24:25;;;;;;;2.05;1.48;;;;;;;;;;5119486;27;20094;-53
2021/10/15 03:26:51;;;;;;;2.92;1.52;;;;;;;;;;5120635;27;20408;-50
2021/10/15 03:29:17;;;;;;;2.05;1.42;;;;;;;;;;5121569;27;20096;-48
2021/10/15 03:31:43;;;;;;;2.72;1.80;;;;;;;;;;5115044;27;20134;-51
2021/10/15 03:34:09;;;;;;;2.55;1.52;;;;;;;;;;5111669;28;20098;-52
2021/10/15 03:36:35;;;;;;;2.85;1.77;;;;;;;;;;5132078;27;20118;-48
2021/10/15 03:39:01;;;;;;;2.70;1.73;;;;;;;;;;5132214;27;20023;-49
2021/10/15 03:41:27;;;;;;;1.75;1.20;;;;;;;;;;5132804;27;20057;-50
2021/10/15 03:43:53;;;;;;;2.20;1.50;;;;;;;;;;5112698;28;20028;-48
2021/10/15 03:46:19;;;;;;;2.58;1.60;;;;;;;;;;5129183;28;20088;-49
2021/10/15 03:48:45;;;;;;;2.53;1.30;;;;;;;;;;5132661;28;20393;-49
2021/10/15 03:51:11;;;;;;;1.98;1.67;;;;;;;;;;5132265;28;20068;-52
2021/10/15 03:53:37;;;;;;;2.50;1.40;;;;;;;;;;5114785;28;20088;-49
2021/10/15 03:56:04;;;;;;;1.77;1.20;;;;;;;;;;5111597;28;20031;-49
2021/10/15 03:58:30;;;;;;;1.80;1.33;;;;;;;;;;5112406;28;20020;-49
2021/10/15 04:00:56;;;;;;;2.20;1.38;;;;;;;;;;5112044;28;20030;-52
2021/10/15 04:03:23;;;;;;;3.10;1.27;;;;;;;;;;5126413;28;20038;-48
2021/10/15 04:05:49;;;;;;;3.53;1.58;;;;;;;;;;5131674;28;20039;-49
2021/10/15 04:08:15;;;;;;;1.90;1.30;;;;;;;;;;5131838;28;20031;-50
2021/10/15 04:10:41;;;;;;;1.95;1.30;;;;;;;;;;5118217;28;20027;-49
2021/10/15 04:13:07;;;;;;;2.42;1.95;;;;;;;;;;5123486;28;20048;-50
2021/10/15 04:15:33;;;;;;;2.00;1.30;;;;;;;;;;5132149;28;20026;-52
2021/10/15 04:17:59;;;;;;;2.40;1.33;;;;;;;;;;5131712;28;20019;-54
2021/10/15 04:20:25;;;;;;;2.20;1.30;;;;;;;;;;5121449;28;20406;-50
2021/10/15 04:22:51;;;;;;;1.90;1.35;;;;;;;;;;5122220;28;20015;-49
2021/10/15 04:25:17;;;;;;;2.20;1.73;;;;;;;;;;5131537;28;20030;-51
2021/10/15 04:27:43;;;;;;;1.75;1.30;;;;;;;;;;5132547;28;20019;-48
2021/10/15 04:30:09;;;;;;;1.67;1.48;;;;;;;;;;5131754;28;20062;-53
2021/10/15 04:32:35;;;;;;;1.50;1.25;;;;;;;;;;5124882;28;20098;-49
2021/10/15 04:35:01;;;;;;;2.17;1.30;;;;;;;;;;5112516;28;20475;-48
2021/10/15 04:37:27;;;;;;;2.25;1.50;;;;;;;;;;5115817;28;20030;-50
2021/10/15 04:39:53;;;;;;;2.05;1.30;;;;;;;;;;5115637;28;20015;-52
2021/10/15 04:42:19;;;;;;;2.30;1.52;;;;;;;;;;5119755;27;20517;-50
2021/10/15 04:44:46;;;;;;;1.90;1.30;;;;;;;;;;5130837;27;20023;-49
2021/10/15 04:47:12;;;;;;;2.17;1.30;;;;;;;;;;5114681;28;20600;-54
2021/10/15 04:49:38;;;;;;;2.00;1.60;;;;;;;;;;5115396;28;20094;-50
2021/10/15 04:52:05;;;;;;;1.77;1.48;;;;;;;;;;5116856;27;20394;-52
2021/10/15 04:54:31;;;;;;;2.60;1.45;;;;;;;;;;5134109;27;20356;-52
2021/10/15 04:56:57;;;;;;;2.15;1.35;;;;;;;;;;5117236;27;20019;-54
2021/10/15 04:59:23;;;;;;;1.80;1.10;;;;;;;;;;5135038;27;20015;-52
2021/10/15 05:01:49;;;;;;;1.70;1.30;;;;;;;;;;5131864;27;20019;-48
2021/10/15 05:04:15;;;;;;;1.88;1.30;;;;;;;;;;5134857;27;20098;-51
2021/10/15 05:06:42;;;;;;;1.55;1.25;;;;;;;;;;5129421;27;20040;-51
2021/10/15 05:11:36;;;;;;;4.28;1.67;;;;;;;;;;5130368;27;20027;-54
2021/10/15 05:14:02;;;;;;;2.55;1.58;;;;;;;;;;5122575;27;20024;-52
2021/10/15 05:16:29;;;;;;;6.28;1.58;;;;;;;;;;5124135;27;20030;-53
2021/10/15 05:18:55;;;;;;;2.53;1.33;;;;;;;;;;5128087;27;20080;-54
2021/10/15 05:21:21;;;;;;;2.45;1.63;;;;;;;;;;5126887;27;20793;-49
2021/10/15 05:23:47;;;;;;;4.93;1.75;;;;;;;;;;5124558;27;20468;-50
2021/10/15 05:26:13;;;;;;;2.42;1.58;;;;;;;;;;5108010;27;20062;-51
2021/10/15 05:28:39;;;;;;;4.47;1.60;;;;;;;;;;5126127;27;20034;-48
2021/10/15 05:31:05;;;;;;;1.88;1.30;;;;;;;;;;5117019;27;20020;-55
2021/10/15 05:33:31;;;;;;;3.35;1.40;;;;;;;;;;5115118;27;20349;-55
2021/10/15 05:35:57;;;;;;;2.70;1.55;;;;;;;;;;5114612;28;20042;-50
2021/10/15 05:38:23;;;;;;;2.42;1.30;;;;;;;;;;5113940;28;20019;-49
2021/10/15 05:40:49;;;;;;;2.47;1.45;;;;;;;;;;5122835;27;20456;-50
2021/10/15 05:43:15;;;;;;;2.25;1.35;;;;;;;;;;5116992;27;20058;-51
2021/10/15 05:45:41;;;;;;;4.82;1.70;;;;;;;;;;5111337;27;20472;-49
2021/10/15 05:48:07;;;;;;;2.38;1.30;;;;;;;;;;5134586;27;20027;-52
2021/10/15 05:50:34;;;;;;;2.45;1.50;;;;;;;;;;5132313;27;20030;-51
2021/10/15 05:53:09;;;;;;;3.90;1.38;;;;;;;;;;5116633;27;20012;-55
2021/10/15 05:55:56;;;;;;;5.93;1.38;;;;;;;;;;5114504;27;20337;-46
2021/10/15 06:01:06;;;;;;;6.72;1.83;;;;;;;;;;5124069;27;20030;-54
2021/10/15 06:03:32;;;;;;;5.15;2.25;;;;;;;;;;5132683;27;20015;-52
2021/10/15 06:14:30;;;;;;;5.55;1.33;;;;;;;;;;5126590;27;20035;-49
2021/10/15 06:16:59;;;;;;;2.80;1.50;;;;;;;;;;5114136;28;20012;-56
2021/10/15 06:19:27;;;;;;;2.88;1.30;;;;;;;;;;5116150;27;20043;-56
2021/10/15 06:21:53;;;;;;;7.40;1.63;;;;;;;;;;5122086;27;20011;-56
2021/10/15 06:24:20;;;;;;;5.63;1.83;;;;;;;;;;5107999;27;20023;-56
2021/10/15 06:26:46;;;;;;;5.88;1.67;;;;;;;;;;5134016;27;20027;-56
2021/10/15 06:29:12;;;;;;;2.95;1.17;;;;;;;;;;5133321;27;20076;-56
2021/10/15 06:31:38;;;;;;;4.97;1.63;;;;;;;;;;5125376;27;20463;-56
2021/10/15 06:34:04;;;;;;;4.57;1.75;;;;;;;;;;5106249;27;20102;-56
2021/10/15 06:36:30;;;;;;;6.43;1.60;;;;;;;;;;5133131;27;20125;-56
2021/10/15 06:38:56;;;;;;;3.05;1.63;;;;;;;;;;5133690;27;20023;-56
2021/10/15 06:41:22;;;;;;;5.13;2.28;;;;;;;;;;5112368;27;20019;-56
2021/10/15 06:43:48;;;;;;;3.65;1.42;;;;;;;;;;5123316;27;20027;-55
2021/10/15 06:46:14;;;;;;;3.08;1.58;;;;;;;;;;5112039;27;20049;-55
2021/10/15 06:48:40;;;;;;;4.80;1.58;;;;;;;;;;5113249;28;20397;-55
2021/10/15 06:51:06;;;;;;;4.30;1.63;;;;;;;;;;5128954;27;20023;-53
2021/10/15 06:53:32;;;;;;;4.50;1.75;;;;;;;;;;5124993;27;20367;-55
2021/10/15 06:55:58;;;;;;;4.00;1.88;;;;;;;;;;5112850;28;20023;-56
2021/10/15 06:58:24;;;;;;;3.00;1.70;;;;;;;;;;5124280;27;20375;-56
2021/10/15 07:00:50;;;;;;;3.30;1.58;;;;;;;;;;5118071;27;20410;-55
2021/10/15 07:03:17;;;;;;;3.40;1.52;;;;;;;;;;5126276;27;20079;-54
2021/10/15 07:05:44;;;;;;;3.75;2.25;;;;;;;;;;5132328;27;20048;-56
2021/10/15 07:08:10;;;;;;;5.32;1.95;;;;;;;;;;5128939;27;20027;-56
2021/10/15 07:10:36;;;;;;;3.17;2.03;;;;;;;;;;5119280;27;20460;-56
2021/10/15 07:13:02;;;;;;;3.25;1.50;;;;;;;;;;5120881;27;20039;-55
2021/10/15 07:15:28;;;;;;;2.47;1.40;;;;;;;;;;5132792;27;20015;-55
2021/10/15 07:17:54;;;;;;;4.07;1.83;;;;;;;;;;5133248;27;20029;-56
2021/10/15 07:20:20;;;;;;;1.98;1.30;;;;;;;;;;5121604;27;20047;-56
2021/10/15 07:22:47;;;;;;;2.40;1.50;;;;;;;;;;5125448;27;20115;-55
2021/10/15 07:25:13;;;;;;;2.70;1.48;;;;;;;;;;5132426;27;20344;-56
2021/10/15 07:27:41;;;;;;;3.92;1.63;;;;;;;;;;5133053;27;20372;-56
2021/10/15 07:30:08;;;;;;;4.22;1.60;;;;;;;;;;5120486;27;20046;-55
2021/10/15 07:32:35;;;;;;;1.83;1.35;;;;;;;;;;5106918;27;20039;-56
2021/10/15 07:35:01;;;;;;;2.55;1.40;;;;;;;;;;5121639;27;20043;-56
2021/10/15 07:37:28;;;;;;;2.00;1.70;;;;;;;;;;5110925;27;20028;-56
2021/10/15 07:39:54;;;;;;;3.58;1.40;;;;;;;;;;5109819;28;20023;-56
2021/10/15 07:42:20;;;;;;;2.58;1.70;;;;;;;;;;5112186;28;20498;-49
2021/10/15 07:44:46;;;;;;;3.35;1.67;;;;;;;;;;5120652;27;20064;-67
2021/10/15 07:47:12;;;;;;;4.68;1.88;;;;;;;;;;5114536;27;20170;-64
2021/10/15 07:49:38;;;;;;;5.90;1.60;;;;;;;;;;5098888;28;20016;-63
2021/10/15 07:52:05;;;;;;;3.83;1.80;;;;;;;;;;5116368;28;20023;-63
2021/10/15 07:54:31;;;;;;;4.72;1.58;;;;;;;;;;5134062;28;20375;-64
2021/10/15 07:56:58;;;;;;;6.63;1.83;;;;;;;;;;5131834;28;20023;-64
2021/10/15 07:59:25;;;;;;;2.08;1.35;;;;;;;;;;5128425;28;20095;-64
2021/10/15 08:01:50;;;;;;;2.33;1.40;;;;;;;;;;5094154;28;20352;-63
2021/10/15 08:04:17;;;;;;;4.97;1.30;;;;;;;;;;5110464;28;20036;-64
2021/10/15 08:06:43;;;;;;;3.17;2.00;;;;;;;;;;5111967;28;20039;-63
2021/10/15 08:09:09;;;;;;;2.88;1.50;;;;;;;;;;5113839;27;20064;-63
2021/10/15 08:11:35;;;;;;;2.63;1.63;;;;;;;;;;5116563;28;20410;-64
2021/10/15 08:14:01;;;;;;;4.10;2.00;;;;;;;;;;5115900;28;20452;-63
2021/10/15 08:16:27;;;;;;;4.25;1.73;;;;;;;;;;5115399;28;20031;-56
2021/10/15 08:18:53;;;;;;;4.18;1.55;;;;;;;;;;5119397;27;20024;-56
2021/10/15 08:21:20;;;;;;;2.22;1.50;;;;;;;;;;5133819;27;20018;-55
2021/10/15 08:23:46;;;;;;;3.33;1.30;;;;;;;;;;5123513;27;20415;-56
2021/10/15 08:26:15;;;;;;;3.92;1.77;;;;;;;;;;5117793;27;20031;-55
2021/10/15 08:28:41;;;;;;;2.75;1.23;;;;;;;;;;5117574;27;20012;-54
2021/10/15 08:31:07;;;;;;;2.47;1.75;;;;;;;;;;5116433;27;20028;-57
2021/10/15 08:33:33;;;;;;;5.53;1.67;;;;;;;;;;5115635;28;20020;-57
2021/10/15 08:35:59;;;;;;;1.95;1.27;;;;;;;;;;5127652;27;20495;-58
2021/10/15 08:38:25;;;;;;;2.22;1.67;;;;;;;;;;5130922;27;20027;-58
2021/10/15 08:40:51;;;;;;;5.03;2.20;;;;;;;;;;5136440;27;20023;-57
2021/10/15 08:43:17;;;;;;;3.63;1.88;;;;;;;;;;5133480;27;20468;-57
2021/10/15 08:45:43;;;;;;;2.65;1.55;;;;;;;;;;5135125;27;20023;-57
2021/10/15 08:48:09;;;;;;;6.65;1.80;;;;;;;;;;5134617;27;20094;-56
2021/10/15 08:50:35;;;;;;;3.08;1.60;;;;;;;;;;5136123;27;20064;-57
2021/10/15 08:53:03;;;;;;;2.50;1.70;;;;;;;;;;5135616;27;20034;-57
2021/10/15 08:55:29;;;;;;;3.13;1.75;;;;;;;;;;5124599;27;20395;-57
2021/10/15 08:57:56;;;;;;;3.30;1.67;;;;;;;;;;5115545;27;20372;-57
2021/10/15 09:00:32;;;;;;;2.28;1.80;;;;;;;;;;5114826;27;20410;-57
2021/10/15 09:03:17;;;;;;;3.00;1.77;;;;;;;;;;5115444;28;20030;-57
2021/10/15 09:05:54;;;;;;;2.88;1.80;;;;;;;;;;5123453;27;20032;-57
2021/10/15 09:08:20;;;;;;;2.88;1.63;;;;;;;;;;5114472;28;20024;-57
2021/10/15 09:10:46;;;;;;;3.03;1.80;;;;;;;;;;5115267;28;20364;-57
2021/10/15 09:13:20;;;;;;;3.10;1.80;;;;;;;;;;5114256;28;20020;-57
2021/10/15 09:16:00;;;;;;;5.38;2.65;;;;;;;;;;5125132;27;20022;-57
2021/10/15 09:18:30;;;;;;;4.97;1.73;;;;;;;;;;5134885;27;20087;-57
2021/10/15 09:20:56;;;;;;;2.65;1.67;;;;;;;;;;5119688;27;20359;-57
2021/10/15 09:23:42;;;;;;;2.20;1.70;;;;;;;;;;5115290;27;20028;-57
2021/10/15 09:26:08;;;;;;;4.70;2.17;;;;;;;;;;5096327;28;20024;-57
2021/10/15 09:28:39;;;;;;;4.72;1.95;;;;;;;;;;5114523;27;20525;-57
2021/10/15 09:31:05;;;;;;;5.75;2.17;;;;;;;;;;5114709;28;20024;-57
2021/10/15 09:33:31;;;;;;;2.97;2.10;;;;;;;;;;5120576;27;20495;-57
2021/10/15 09:36:07;;;;;;;4.15;2.00;;;;;;;;;;5134852;27;20051;-57
2021/10/15 09:38:33;;;;;;;1.92;1.70;;;;;;;;;;5134614;27;20019;-57
2021/10/15 09:40:59;;;;;;;3.47;1.80;;;;;;;;;;5135156;27;20023;-57
2021/10/15 09:43:36;;;;;;;2.92;1.77;;;;;;;;;;5127773;27;20024;-57
2021/10/15 09:46:02;;;;;;;2.33;1.88;;;;;;;;;;5114452;27;20118;-57
2021/10/15 09:48:35;;;;;;;3.75;2.03;;;;;;;;;;5113759;28;20020;-57
2021/10/15 09:51:11;;;;;;;1.83;1.58;;;;;;;;;;5130266;27;20417;-57
2021/10/15 09:53:37;;;;;;;2.13;1.75;;;;;;;;;;5127219;27;20023;-57
2021/10/15 09:56:03;;;;;;;3.20;1.98;;;;;;;;;;5114791;28;20325;-57
2021/10/15 09:58:29;;;;;;;5.72;1.98;;;;;;;;;;5113785;27;20171;-57
2021/10/15 10:00:55;;;;;;;3.35;1.80;;;;;;;;;;5114194;28;20015;-57
2021/10/15 10:03:23;;;;;;;4.15;2.38;;;;;;;;;;5122809;27;20425;-57
2021/10/15 10:05:49;;;;;;;2.58;1.80;;;;;;;;;;5127464;27;20091;-57
2021/10/15 10:08:15;;;;;;;4.15;2.05;;;;;;;;;;5113085;28;20499;-57
2021/10/15 10:10:42;;;;;;;3.65;2.08;;;;;;;;;;5114120;28;20027;-57
2021/10/15 10:13:09;;;;;;;3.08;1.90;;;;;;;;;;5113720;28;20015;-57
2021/10/15 10:15:37;;;;;;;2.03;1.63;;;;;;;;;;5113771;28;20016;-57
2021/10/15 10:20:40;;;;;;;3.88;1.92;;;;;;;;;;5121352;27;20024;-57
2021/10/15 10:23:09;;;;;;;4.05;1.95;;;;;;;;;;5113867;28;20077;-57
2021/10/15 10:25:35;;;;;;;4.57;2.85;;;;;;;;;;5113500;28;20016;-56
2021/10/15 10:28:22;;;;;;;2.95;1.80;;;;;;;;;;5122395;27;20030;-57
2021/10/15 10:30:49;;;;;;;4.75;2.47;;;;;;;;;;5134322;27;20023;-57
2021/10/15 10:33:15;;;;;;;5.00;1.80;;;;;;;;;;5125431;27;20024;-57
2021/10/15 10:35:45;;;;;;;3.00;2.15;;;;;;;;;;5113167;28;20507;-57
2021/10/15 10:38:20;;;;;;;3.00;1.98;;;;;;;;;;5112967;28;20015;-57
2021/10/15 10:41:01;;;;;;;4.47;2.05;;;;;;;;;;5129845;27;20026;-57
2021/10/15 10:43:32;;;;;;;3.33;2.53;;;;;;;;;;5132831;27;20019;-56
2021/10/15 10:46:10;;;;;;;4.07;2.10;;;;;;;;;;5133538;27;20011;-57
2021/10/15 10:48:51;;;;;;;2.75;1.60;;;;;;;;;;5131952;27;20034;-57
2021/10/15 10:51:18;;;;;;;2.22;2.03;;;;;;;;;;5127948;27;20023;-56
2021/10/15 10:54:05;;;;;;;3.45;1.90;;;;;;;;;;5113181;28;20019;-54
2021/10/15 10:56:37;;;;;;;2.97;2.05;;;;;;;;;;5112533;28;20080;-54
2021/10/15 11:01:48;;;;;;;4.43;2.22;;;;;;;;;;5113090;28;20028;-55
2021/10/15 11:04:34;;;;;;;2.72;1.80;;;;;;;;;;5129824;27;20023;-56
2021/10/15 11:07:02;;;;;;;2.20;1.60;;;;;;;;;;5133179;27;20062;-54
2021/10/15 11:09:28;;;;;;;3.15;2.22;;;;;;;;;;5132830;27;20015;-55
2021/10/15 11:11:54;;;;;;;2.97;1.77;;;;;;;;;;5133502;27;20007;-55
2021/10/15 11:14:21;;;;;;;2.67;1.90;;;;;;;;;;5114584;27;20020;-54
2021/10/15 11:16:47;;;;;;;3.45;1.90;;;;;;;;;;5125464;27;20027;-54
2021/10/15 11:19:17;;;;;;;2.95;2.20;;;;;;;;;;5131724;27;20011;-56
2021/10/15 11:21:43;;;;;;;5.97;1.80;;;;;;;;;;5113211;28;20020;-55
2021/10/15 11:24:16;;;;;;;3.28;1.90;;;;;;;;;;5128962;27;20015;-54
2021/10/15 11:26:42;;;;;;;2.08;1.58;;;;;;;;;;5133406;27;20153;-55
2021/10/15 11:29:08;;;;;;;4.30;1.65;;;;;;;;;;5128852;27;20004;-57
2021/10/15 11:31:35;;;;;;;4.97;2.60;;;;;;;;;;5119842;27;20043;-56
2021/10/15 11:34:10;;;;;;;3.15;1.85;;;;;;;;;;5132727;27;20094;-51
2021/10/15 11:36:37;;;;;;;3.58;1.50;;;;;;;;;;5111814;28;20049;-47
2021/10/15 11:39:04;;;;;;;4.68;2.08;;;;;;;;;;5129618;27;20023;-49
2021/10/15 11:41:30;;;;;;;2.53;1.70;;;;;;;;;;5125312;27;20020;-54
2021/10/15 11:43:56;;;;;;;2.95;2.00;;;;;;;;;;5113155;28;20028;-56
2021/10/15 11:46:25;;;;;;;3.60;1.70;;;;;;;;;;5112641;27;20034;-56
2021/10/15 11:48:52;;;;;;;2.63;1.70;;;;;;;;;;5113436;28;20023;-51
2021/10/15 11:51:23;;;;;;;5.05;1.92;;;;;;;;;;5115354;28;20019;-48
2021/10/15 11:53:50;;;;;;;4.18;2.33;;;;;;;;;;5112476;28;20415;-56
2021/10/15 11:56:20;;;;;;;3.63;2.25;;;;;;;;;;5111422;28;20046;-57
2021/10/15 11:58:49;;;;;;;3.92;1.75;;;;;;;;;;5119346;28;20098;-58
2021/10/15 12:01:19;;;;;;;3.40;1.92;;;;;;;;;;5132136;28;20019;-58
2021/10/15 12:03:58;;;;;;;5.45;1.60;;;;;;;;;;5115718;28;20081;-58
2021/10/15 12:06:28;;;;;;;3.67;1.60;;;;;;;;;;5132008;28;20367;-56
2021/10/15 12:09:15;;;;;;;4.38;1.70;;;;;;;;;;5132817;28;20363;-53
2021/10/15 12:11:41;;;;;;;3.53;1.60;;;;;;;;;;5118878;28;20020;-55
2021/10/15 12:14:10;;;;;;;3.53;1.73;;;;;;;;;;5132876;28;20385;-53
2021/10/15 12:16:44;;;;;;;4.20;2.25;;;;;;;;;;5131932;28;20035;-54
2021/10/15 12:19:20;;;;;;;5.47;2.15;;;;;;;;;;5132130;28;20371;-57
2021/10/15 12:21:50;;;;;;;5.57;2.40;;;;;;;;;;5112065;28;20026;-57
2021/10/15 12:24:25;;;;;;;4.40;1.30;;;;;;;;;;5111594;28;20035;-57
2021/10/15 12:27:10;;;;;;;4.20;1.85;;;;;;;;;;5112008;28;20454;-56
2021/10/15 12:29:47;;;;;;;2.35;1.30;;;;;;;;;;5111387;28;20035;-58
2021/10/15 12:32:17;;;;;;;2.10;1.80;;;;;;;;;;5121847;28;20012;-52
2021/10/15 12:34:57;;;;;;;4.80;1.42;;;;;;;;;;5111747;28;20043;-49
2021/10/15 12:37:37;;;;;;;2.53;1.75;;;;;;;;;;5111257;28;20115;-51
2021/10/15 12:40:08;;;;;;;6.28;1.77;;;;;;;;;;5111981;28;20038;-50
2021/10/15 12:42:34;;;;;;;4.78;2.17;;;;;;;;;;5111024;28;20240;-48
2021/10/15 12:45:05;;;;;;;3.05;1.75;;;;;;;;;;5120396;28;20455;-51
2021/10/15 12:47:31;;;;;;;5.57;1.80;;;;;;;;;;5129946;28;20046;-56
2021/10/15 12:50:01;;;;;;;3.20;1.75;;;;;;;;;;5132068;28;20452;-56
2021/10/15 12:52:32;;;;;;;4.95;1.75;;;;;;;;;;5130967;28;20055;-56
2021/10/15 12:54:58;;;;;;;2.67;1.65;;;;;;;;;;5132603;27;20421;-58
2021/10/15 12:57:33;;;;;;;1.75;1.20;;;;;;;;;;5125821;27;20023;-57
2021/10/15 13:00:01;;;;;;;2.95;2.30;;;;;;;;;;5120240;27;20026;-52
2021/10/15 13:02:28;;;;;;;3.72;1.27;;;;;;;;;;5129803;27;20023;-49
2021/10/15 13:04:56;;;;;;;2.80;1.40;;;;;;;;;;5115394;28;20102;-47
2021/10/15 13:07:22;;;;;;;3.40;2.25;;;;;;;;;;5114230;28;20043;-45
2021/10/15 13:09:48;;;;;;;2.58;1.60;;;;;;;;;;5115337;28;20016;-50
2021/10/15 13:12:14;;;;;;;4.95;1.58;;;;;;;;;;5117909;27;20038;-53
2021/10/15 13:14:40;;;;;;;5.63;1.33;;;;;;;;;;5134333;27;20440;-50
2021/10/15 13:17:08;;;;;;;4.65;1.83;;;;;;;;;;5132569;27;20019;-52
2021/10/15 13:19:34;;;;;;;4.20;2.60;;;;;;;;;;5125992;27;20023;-51
2021/10/15 13:22:00;;;;;;;6.13;2.10;;;;;;;;;;5114933;28;20024;-55
2021/10/15 13:24:26;;;;;;;8.05;2.60;;;;;;;;;;5114098;28;20116;-50
2021/10/15 13:26:52;;;;;;;6.03;1.27;;;;;;;;;;5128069;27;20039;-54
2021/10/15 13:29:18;;;;;;;4.32;1.30;;;;;;;;;;5129558;27;20103;-57
2021/10/15 13:31:44;;;;;;;3.08;1.50;;;;;;;;;;5133394;27;20019;-54
2021/10/15 13:34:10;;;;;;;2.90;1.20;;;;;;;;;;5135538;27;20019;-56
2021/10/15 13:36:40;;;;;;;4.05;1.10;;;;;;;;;;5134197;27;20126;-52
2021/10/15 13:39:07;;;;;;;3.50;1.30;;;;;;;;;;5133985;27;20023;-52
2021/10/15 13:41:54;;;;;;;3.90;1.45;;;;;;;;;;5113913;28;20352;-52
2021/10/15 13:49:53;;;;;;;1.42;1.20;;;;;;;;;;5037910;28;20028;-49
2021/10/15 13:52:20;;;;;;;4.47;1.35;;;;;;;;;;5089424;27;20041;-47
2021/10/15 13:54:47;;;;;;;4.80;1.55;;;;;;;;;;5130943;27;20419;-51
2021/10/15 13:57:16;;;;;;;3.22;1.20;;;;;;;;;;5134924;27;20037;-49
2021/10/15 13:59:59;;;;;;;5.90;1.50;;;;;;;;;;5115939;27;20447;-46
2021/10/15 14:02:36;;;;;;;4.57;1.70;;;;;;;;;;5133372;27;20019;-45
2021/10/15 14:05:02;;;;;;;4.47;1.42;;;;;;;;;;5121600;27;20099;-49
2021/10/15 14:07:28;;;;;;;4.07;1.48;;;;;;;;;;5126619;27;20370;-52
2021/10/15 14:09:54;;;;;;;4.60;1.48;;;;;;;;;;5115891;27;20086;-49
2021/10/15 14:12:21;;;;;;;7.13;1.85;;;;;;;;;;5113022;28;20396;-56
2021/10/15 14:14:49;;;;;;;7.10;1.23;;;;;;;;;;5123607;27;20030;-56
2021/10/15 14:17:15;;;;;;;3.67;1.20;;;;;;;;;;5134768;27;20016;-57
2021/10/15 14:19:41;;;;;;;2.15;1.30;;;;;;;;;;5126126;27;20019;-58
2021/10/15 14:22:07;;;;;;;7.80;1.77;;;;;;;;;;5134325;27;20053;-58
2021/10/15 14:24:37;;;;;;;2.15;1.20;;;;;;;;;;5124831;27;20034;-58
2021/10/15 14:27:04;;;;;;;3.65;1.20;;;;;;;;;;5134347;27;20043;-56
2021/10/15 14:29:30;;;;;;;3.15;1.30;;;;;;;;;;5133206;27;20049;-55
2021/10/15 14:31:56;;;;;;;4.43;1.30;;;;;;;;;;5134011;27;20027;-52
2021/10/15 14:34:22;;;;;;;3.38;1.33;;;;;;;;;;5122786;27;20034;-55
2021/10/15 14:36:48;;;;;;;4.43;1.00;;;;;;;;;;5132895;27;20050;-53
2021/10/15 14:39:14;;;;;;;1.83;1.13;;;;;;;;;;5122951;27;20475;-55
2021/10/15 14:41:40;;;;;;;2.78;1.20;;;;;;;;;;5105607;27;20012;-58
2021/10/15 14:44:06;;;;;;;5.78;1.58;;;;;;;;;;5115218;27;20024;-56
2021/10/15 14:46:33;;;;;;;5.97;1.75;;;;;;;;;;5129903;27;20030;-58
2021/10/15 14:48:59;;;;;;;2.92;1.20;;;;;;;;;;5133735;27;20015;-56
2021/10/15 14:51:25;;;;;;;3.33;1.30;;;;;;;;;;5131115;27;20027;-57
2021/10/15 14:53:51;;;;;;;3.88;1.17;;;;;;;;;;5133704;27;20035;-55
2021/10/15 14:56:17;;;;;;;3.67;1.52;;;;;;;;;;5113276;28;20404;-57
2021/10/15 14:58:43;;;;;;;5.78;1.13;;;;;;;;;;5112363;28;20016;-57
2021/10/15 15:01:10;;;;;;;3.10;1.35;;;;;;;;;;5113230;28;20035;-56
2021/10/15 15:03:37;;;;;;;2.70;1.17;;;;;;;;;;5112057;28;20099;-57
2021/10/15 15:06:04;;;;;;;5.28;1.27;;;;;;;;;;5129732;27;20038;-57
2021/10/15 15:08:30;;;;;;;3.92;1.10;;;;;;;;;;5131655;27;20023;-56
2021/10/15 15:10:56;;;;;;;3.08;1.23;;;;;;;;;;5118404;27;20465;-56